createdAt,value
2023-05-24T00:00:35.810Z,92.26
2023-05-24T00:01:35.883Z,90.94
2023-05-24T00:02:35.881Z,90.94
2023-05-24T00:03:36.193Z,92.77
2023-05-24T00:04:35.810Z,91.03
2023-05-24T00:05:35.863Z,91.85
2023-05-24T00:06:35.745Z,90.94
2023-05-24T00:07:35.826Z,91.55
2023-05-24T00:08:35.777Z,90.83
2023-05-24T00:09:35.851Z,90.83
2023-05-24T00:10:35.730Z,92.05
2023-05-24T00:11:35.753Z,92.05
2023-05-24T00:12:35.702Z,91.44
2023-05-24T00:13:35.824Z,91.44
2023-05-24T00:14:35.668Z,95.52
2023-05-24T00:15:35.822Z,90.83
2023-05-24T00:16:35.766Z,91.03
2023-05-24T00:17:35.713Z,92.05
2023-05-24T00:18:35.674Z,90.22
2023-05-24T00:19:35.775Z,90.94
2023-05-24T00:20:35.685Z,92.57
2023-05-24T00:21:35.762Z,91.55
2023-05-24T00:22:35.591Z,91.96
2023-05-24T00:23:35.747Z,92.36
2023-05-24T00:24:35.594Z,91.35
2023-05-24T00:25:35.708Z,90.73
2023-05-24T00:26:35.555Z,90.73
2023-05-24T00:27:35.655Z,93.18
2023-05-24T00:28:35.538Z,91.24
2023-05-24T00:29:35.674Z,91.44
2023-05-24T00:30:35.542Z,91.85
2023-05-24T00:31:35.682Z,93.07
2023-05-24T00:32:35.506Z,91.35
2023-05-24T00:33:35.611Z,92.26
2023-05-24T00:34:35.466Z,90.47
2023-05-24T00:35:35.623Z,91.59
2023-05-24T00:36:35.463Z,91.28
2023-05-24T00:37:36.605Z,93.63
2023-05-24T00:38:35.430Z,91.18
2023-05-24T00:39:35.561Z,92.30
2023-05-24T00:40:35.409Z,90.57
2023-05-24T00:41:37.631Z,96.18
2023-05-24T00:42:35.388Z,91.79
2023-05-24T00:43:37.549Z,90.98
2023-05-24T00:44:35.364Z,91.18
2023-05-24T00:45:35.587Z,91.39
2023-05-24T00:46:35.403Z,92.00
2023-05-24T00:47:36.467Z,94.55
2023-05-24T00:48:35.331Z,90.88
2023-05-24T00:49:35.417Z,91.79
2023-05-24T00:50:35.303Z,91.59
2023-05-24T00:51:35.438Z,91.69
2023-05-24T00:52:35.308Z,92.41
2023-05-24T00:53:36.408Z,93.73
2023-05-24T00:54:35.255Z,91.89
2023-05-24T00:55:35.360Z,91.18
2023-05-24T00:56:35.274Z,91.59
2023-05-24T00:57:35.386Z,91.39
2023-05-24T00:58:35.228Z,91.79
2023-05-24T00:59:35.392Z,91.89
2023-05-24T01:00:35.204Z,91.39
2023-05-24T01:01:35.477Z,91.59
2023-05-24T01:02:35.317Z,91.69
2023-05-24T01:03:35.412Z,91.59
2023-05-24T01:04:35.159Z,92.50
2023-05-24T01:05:35.351Z,93.22
2023-05-24T01:06:35.166Z,92.50
2023-05-24T01:07:35.247Z,93.73
2023-05-24T01:08:36.705Z,94.34
2023-05-24T01:09:35.258Z,92.61
2023-05-24T01:10:35.110Z,92.41
2023-05-24T01:11:35.300Z,92.61
2023-05-24T01:12:35.107Z,92.30
2023-05-24T01:13:35.186Z,92.20
2023-05-24T01:14:35.050Z,92.10
2023-05-24T01:15:35.220Z,92.50
2023-05-24T01:16:35.124Z,96.79
2023-05-24T01:17:35.277Z,92.71
2023-05-24T01:18:35.028Z,96.38
2023-05-24T01:19:35.123Z,94.24
2023-05-24T01:20:35.221Z,91.28
2023-05-24T01:21:35.147Z,95.36
2023-05-24T01:22:34.978Z,93.43
2023-05-24T01:23:35.222Z,92.10
2023-05-24T01:24:34.954Z,90.98
2023-05-24T01:25:35.113Z,90.57
2023-05-24T01:26:34.926Z,93.32
2023-05-24T01:27:35.138Z,91.69
2023-05-24T01:28:34.919Z,94.85
2023-05-24T01:29:35.116Z,91.49
2023-05-24T01:30:34.905Z,93.02
2023-05-24T01:31:37.086Z,93.22
2023-05-24T01:32:34.946Z,91.28
2023-05-24T01:33:37.072Z,91.28
2023-05-24T01:34:34.846Z,92.20
2023-05-24T01:35:35.948Z,90.88
2023-05-24T01:36:34.837Z,90.36
2023-05-24T01:37:34.983Z,90.67
2023-05-24T01:38:34.819Z,91.18
2023-05-24T01:39:35.032Z,90.47
2023-05-24T01:40:34.799Z,93.63
2023-05-24T01:41:35.936Z,94.04
2023-05-24T01:42:34.765Z,92.41
2023-05-24T01:43:34.957Z,92.10
2023-05-24T01:44:34.774Z,93.73
2023-05-24T01:45:34.815Z,90.67
2023-05-24T01:46:34.758Z,92.81
2023-05-24T01:47:34.893Z,90.57
2023-05-24T01:48:34.703Z,91.39
2023-05-24T01:49:34.763Z,92.71
2023-05-24T01:50:34.682Z,98.83
2023-05-24T01:51:34.733Z,96.79
2023-05-24T01:52:34.659Z,93.84
2023-05-24T01:53:34.790Z,91.89
2023-05-24T01:54:34.652Z,92.50
2023-05-24T01:55:34.730Z,96.48
2023-05-24T01:56:34.628Z,98.93
2023-05-24T01:57:34.689Z,96.48
2023-05-24T01:58:34.615Z,95.77
2023-05-24T01:59:34.743Z,96.69
2023-05-24T02:00:34.587Z,96.48
2023-05-24T02:01:34.636Z,98.63
2023-05-24T02:02:34.737Z,98.63
2023-05-24T02:03:34.542Z,93.22
2023-05-24T02:04:34.703Z,92.20
2023-05-24T02:05:34.520Z,96.08
2023-05-24T02:06:34.645Z,93.52
2023-05-24T02:07:34.492Z,94.95
2023-05-24T02:08:35.589Z,91.08
2023-05-24T02:09:34.501Z,92.71
2023-05-24T02:10:35.605Z,93.22
2023-05-24T02:11:34.476Z,90.06
2023-05-24T02:12:34.601Z,90.36
2023-05-24T02:13:34.438Z,90.06
2023-05-24T02:14:37.607Z,89.45
2023-05-24T02:15:34.428Z,90.26
2023-05-24T02:16:36.593Z,92.91
2023-05-24T02:17:34.482Z,95.77
2023-05-24T02:18:35.458Z,91.49
2023-05-24T02:19:34.408Z,92.91
2023-05-24T02:20:34.458Z,93.73
2023-05-24T02:21:35.309Z,92.81
2023-05-24T02:22:34.455Z,89.55
2023-05-24T02:23:34.338Z,89.96
2023-05-24T02:24:34.467Z,89.49
2023-05-24T02:25:34.340Z,89.49
2023-05-24T02:26:34.385Z,90.00
2023-05-24T02:27:34.302Z,94.70
2023-05-24T02:28:34.406Z,90.92
2023-05-24T02:29:34.310Z,93.73
2023-05-24T02:30:34.419Z,90.20
2023-05-24T02:31:34.316Z,89.08
2023-05-24T02:32:34.376Z,89.08
2023-05-24T02:33:34.232Z,89.49
2023-05-24T02:34:34.422Z,90.41
2023-05-24T02:35:34.229Z,92.45
2023-05-24T02:36:34.371Z,91.33
2023-05-24T02:37:34.190Z,91.02
2023-05-24T02:38:34.257Z,90.31
2023-05-24T02:39:34.208Z,90.10
2023-05-24T02:40:34.280Z,91.43
2023-05-24T02:41:34.153Z,89.79
2023-05-24T02:42:34.303Z,90.81
2023-05-24T02:43:34.125Z,93.67
2023-05-24T02:44:34.223Z,90.41
2023-05-24T02:45:34.132Z,90.20
2023-05-24T02:46:34.228Z,89.49
2023-05-24T02:47:34.097Z,93.67
2023-05-24T02:48:34.231Z,95.61
2023-05-24T02:49:34.065Z,94.70
2023-05-24T02:50:34.264Z,93.67
2023-05-24T02:51:34.054Z,96.12
2023-05-24T02:52:34.170Z,89.79
2023-05-24T02:53:34.041Z,90.71
2023-05-24T02:54:34.211Z,89.18
2023-05-24T02:55:33.996Z,89.28
2023-05-24T02:56:34.123Z,88.67
2023-05-24T02:57:33.994Z,91.94
2023-05-24T02:58:34.098Z,89.18
2023-05-24T02:59:33.983Z,89.73
2023-05-24T03:00:34.123Z,89.63
2023-05-24T03:01:34.077Z,90.14
2023-05-24T03:02:35.090Z,91.16
2023-05-24T03:03:34.029Z,92.14
2023-05-24T03:04:56.060Z,93.77
2023-05-24T03:05:33.942Z,89.12
2023-05-24T03:06:35.994Z,91.47
2023-05-24T03:07:33.877Z,94.38
2023-05-24T03:08:34.032Z,89.53
2023-05-24T03:09:33.870Z,89.63
2023-05-24T03:10:34.035Z,89.32
2023-05-24T03:11:33.854Z,88.10
2023-05-24T03:12:33.987Z,92.90
2023-05-24T03:13:33.838Z,88.31
2023-05-24T03:14:33.921Z,88.92
2023-05-24T03:15:33.822Z,88.41
2023-05-24T03:16:34.055Z,87.59
2023-05-24T03:17:33.810Z,87.49
2023-05-24T03:18:33.936Z,87.49
2023-05-24T03:19:33.760Z,86.88
2023-05-24T03:20:34.169Z,87.49
2023-05-24T03:21:33.731Z,85.35
2023-05-24T03:22:33.900Z,85.75
2023-05-24T03:23:33.730Z,87.18
2023-05-24T03:24:33.876Z,85.86
2023-05-24T03:25:33.703Z,87.90
2023-05-24T03:26:33.797Z,85.59
2023-05-24T03:27:33.711Z,85.59
2023-05-24T03:28:33.801Z,85.59
2023-05-24T03:29:33.669Z,86.00
2023-05-24T03:30:33.918Z,85.38
2023-05-24T03:31:33.716Z,86.51
2023-05-24T03:32:33.870Z,87.43
2023-05-24T03:33:33.644Z,86.00
2023-05-24T03:34:33.758Z,85.69
2023-05-24T03:35:33.609Z,86.41
2023-05-24T03:36:33.812Z,86.91
2023-05-24T03:37:33.579Z,85.49
2023-05-24T03:38:33.775Z,86.71
2023-05-24T03:39:33.555Z,85.49
2023-05-24T03:40:33.978Z,84.61
2023-05-24T03:41:33.537Z,87.23
2023-05-24T03:42:33.761Z,86.71
2023-05-24T03:43:33.521Z,85.69
2023-05-24T03:44:33.718Z,85.79
2023-05-24T03:45:39.285Z,86.20
2023-05-24T03:46:33.603Z,87.02
2023-05-24T03:47:33.690Z,86.61
2023-05-24T03:48:33.568Z,84.88
2023-05-24T03:49:33.649Z,85.08
2023-05-24T03:50:33.443Z,84.36
2023-05-24T03:51:35.646Z,86.82
2023-05-24T03:52:33.418Z,86.61
2023-05-24T03:53:33.441Z,85.69
2023-05-24T03:54:33.403Z,86.00
2023-05-24T03:55:33.424Z,85.69
2023-05-24T03:57:52.579Z,84.88
2023-05-24T03:58:51.399Z,84.41
2023-05-24T03:59:52.556Z,85.12
2023-05-24T04:00:51.344Z,85.32
2023-05-24T04:01:51.368Z,85.32
2023-05-24T04:02:51.626Z,85.63
2023-05-24T04:04:51.354Z,86.85
2023-05-24T04:05:51.300Z,86.44
2023-05-24T04:06:51.409Z,89.31
2023-05-24T04:07:51.273Z,86.55
2023-05-24T04:08:51.333Z,85.63
2023-05-24T04:09:51.254Z,85.42
2023-05-24T04:10:51.286Z,85.73
2023-05-24T04:11:51.231Z,86.24
2023-05-24T04:12:51.318Z,88.39
2023-05-24T04:13:51.262Z,85.12
2023-05-24T04:14:51.318Z,85.63
2023-05-24T04:15:51.187Z,88.39
2023-05-24T04:16:51.270Z,84.50
2023-05-24T04:17:51.191Z,84.09
2023-05-24T04:18:51.464Z,84.71
2023-05-24T04:19:51.168Z,87.67
2023-05-24T04:20:51.144Z,84.71
2023-05-24T04:21:51.121Z,84.24
2023-05-24T04:22:51.166Z,85.47
2023-05-24T04:23:51.138Z,87.71
2023-05-24T04:24:51.300Z,86.29
2023-05-24T04:25:51.079Z,85.47
2023-05-24T04:26:51.081Z,87.98
2023-05-24T04:27:51.059Z,84.14
2023-05-24T04:28:51.144Z,89.86
2023-05-24T04:29:51.027Z,89.92
2023-05-24T04:30:51.153Z,85.47
2023-05-24T04:31:51.045Z,85.97
2023-05-24T04:32:51.158Z,84.91
2023-05-24T04:33:51.011Z,86.35
2023-05-24T04:34:51.032Z,84.61
2023-05-24T04:35:51.003Z,84.81
2023-05-24T04:36:51.051Z,90.74
2023-05-24T04:37:50.981Z,85.42
2023-05-24T04:38:51.061Z,83.79
2023-05-24T04:39:50.937Z,85.22
2023-05-24T04:40:50.966Z,85.12
2023-05-24T04:41:50.933Z,85.22
2023-05-24T04:42:51.017Z,85.83
2023-05-24T04:43:50.885Z,84.65
2023-05-24T04:44:50.995Z,84.65
2023-05-24T04:45:50.868Z,84.95
2023-05-24T04:46:51.013Z,84.85
2023-05-24T04:47:50.904Z,84.34
2023-05-24T04:48:51.003Z,86.69
2023-05-24T04:49:50.853Z,85.57
2023-05-24T04:50:50.962Z,84.95
2023-05-24T04:51:51.163Z,84.14
2023-05-24T04:52:50.854Z,83.73
2023-05-24T04:53:50.778Z,85.16
2023-05-24T04:54:50.854Z,84.65
2023-05-24T04:55:50.791Z,84.44
2023-05-24T04:56:50.771Z,84.75
2023-05-24T04:57:50.809Z,86.69
2023-05-24T04:58:50.757Z,85.16
2023-05-24T04:59:50.721Z,84.95
2023-05-24T05:00:50.915Z,83.22
2023-05-24T05:01:50.909Z,84.85
2023-05-24T05:02:51.029Z,83.01
2023-05-24T05:03:50.797Z,84.55
2023-05-24T05:04:50.720Z,84.65
2023-05-24T05:05:50.667Z,86.79
2023-05-24T05:06:50.770Z,83.93
2023-05-24T05:07:50.655Z,83.93
2023-05-24T05:08:50.848Z,82.97
2023-05-24T05:09:50.618Z,83.89
2023-05-24T05:10:50.712Z,90.64
2023-05-24T05:11:50.615Z,84.41
2023-05-24T05:12:50.737Z,83.48
2023-05-24T05:13:50.570Z,83.89
2023-05-24T05:14:50.685Z,86.96
2023-05-24T05:15:50.548Z,84.09
2023-05-24T05:16:50.707Z,84.98
2023-05-24T05:17:50.661Z,84.61
2023-05-24T05:18:50.598Z,83.28
2023-05-24T05:19:50.549Z,84.16
2023-05-24T05:20:50.669Z,83.54
2023-05-24T05:21:50.493Z,85.28
2023-05-24T05:22:50.577Z,88.24
2023-05-24T05:23:50.477Z,83.65
2023-05-24T05:24:50.561Z,83.44
2023-05-24T05:25:50.452Z,84.98
2023-05-24T05:26:50.599Z,86.91
2023-05-24T05:27:50.464Z,85.18
2023-05-24T05:28:50.453Z,82.73
2023-05-24T05:29:50.408Z,84.57
2023-05-24T05:30:50.508Z,83.75
2023-05-24T05:31:50.429Z,83.04
2023-05-24T05:32:50.692Z,82.42
2023-05-24T05:33:50.390Z,81.71
2023-05-24T05:34:50.400Z,82.12
2023-05-24T05:35:51.697Z,82.32
2023-05-24T05:36:50.479Z,82.77
2023-05-24T05:37:50.310Z,85.18
2023-05-24T05:38:50.464Z,84.00
2023-05-24T05:39:50.329Z,85.22
2023-05-24T05:40:50.404Z,84.41
2023-05-24T05:41:50.303Z,85.28
2023-05-24T05:42:50.343Z,85.38
2023-05-24T05:43:50.253Z,85.08
2023-05-24T05:44:50.366Z,83.04
2023-05-24T05:45:50.272Z,82.93
2023-05-24T05:46:50.288Z,84.77
2023-05-24T05:47:50.262Z,82.93
2023-05-24T05:48:50.310Z,84.36
2023-05-24T05:49:50.197Z,82.15
2023-05-24T05:50:50.334Z,82.93
2023-05-24T05:51:50.202Z,83.79
2023-05-24T05:52:50.251Z,84.09
2023-05-24T05:53:50.159Z,83.65
2023-05-24T05:54:50.280Z,86.61
2023-05-24T05:55:50.132Z,83.75
2023-05-24T05:56:50.214Z,82.93
2023-05-24T05:57:50.109Z,83.24
2023-05-24T05:58:50.208Z,87.32
2023-05-24T05:59:50.083Z,83.85
2023-05-24T06:00:50.182Z,89.98
2023-05-24T06:01:50.282Z,89.26
2023-05-24T06:02:50.307Z,83.24
2023-05-24T06:03:50.253Z,82.32
2023-05-24T06:04:50.204Z,84.98
2023-05-24T06:05:50.023Z,84.36
2023-05-24T06:06:50.145Z,83.65
2023-05-24T06:07:50.192Z,85.08
2023-05-24T06:08:50.104Z,84.16
2023-05-24T06:09:50.001Z,87.02
2023-05-24T06:10:52.767Z,84.77
2023-05-24T06:11:49.997Z,84.77
2023-05-24T06:12:50.086Z,84.36
2023-05-24T06:13:49.945Z,83.44
2023-05-24T06:14:50.100Z,84.57
2023-05-24T06:15:50.074Z,84.57
2023-05-24T06:16:49.955Z,83.44
2023-05-24T06:17:49.922Z,84.67
2023-05-24T06:19:01.429Z,83.54
2023-05-24T06:19:49.908Z,83.85
2023-05-24T06:20:49.983Z,82.73
2023-05-24T06:21:49.849Z,83.04
2023-05-24T06:22:49.894Z,83.34
2023-05-24T06:23:49.861Z,83.44
2023-05-24T06:24:49.959Z,83.18
2023-05-24T06:25:49.810Z,84.41
2023-05-24T06:26:49.918Z,83.79
2023-05-24T06:27:49.794Z,84.61
2023-05-24T06:28:49.825Z,85.32
2023-05-24T06:29:49.843Z,84.81
2023-05-24T06:30:49.861Z,85.42
2023-05-24T06:31:50.070Z,84.20
2023-05-24T06:32:49.883Z,85.22
2023-05-24T06:34:02.539Z,85.42
2023-05-24T06:34:49.745Z,88.79
2023-05-24T06:35:49.761Z,85.42
2023-05-24T06:36:49.707Z,86.44
2023-05-24T06:37:49.807Z,88.08
2023-05-24T06:38:49.690Z,86.65
2023-05-24T06:39:49.742Z,86.65
2023-05-24T06:40:49.683Z,88.35
2023-05-24T06:41:49.694Z,85.08
2023-05-24T06:42:49.769Z,84.98
2023-05-24T06:43:49.719Z,85.08
2023-05-24T06:44:49.623Z,85.12
2023-05-24T06:45:49.675Z,84.41
2023-05-24T06:46:49.687Z,88.39
2023-05-24T06:47:49.858Z,84.20
2023-05-24T06:48:49.696Z,84.61
2023-05-24T06:49:49.721Z,84.30
2023-05-24T06:50:49.623Z,85.53
2023-05-24T06:51:49.615Z,83.69
2023-05-24T06:52:49.565Z,84.20
2023-05-24T06:53:49.620Z,86.76
2023-05-24T06:54:49.520Z,87.06
2023-05-24T06:55:49.747Z,86.61
2023-05-24T06:56:49.502Z,86.91
2023-05-24T06:57:49.507Z,87.84
2023-05-24T06:58:49.481Z,83.54
2023-05-24T06:59:49.538Z,85.86
2023-05-24T07:00:49.483Z,83.71
2023-05-24T07:01:49.646Z,84.22
2023-05-24T07:02:49.464Z,81.87
2023-05-24T07:03:49.437Z,85.21
2023-05-24T07:04:49.445Z,85.41
2023-05-24T07:05:49.540Z,82.35
2023-05-24T07:06:49.390Z,82.24
2023-05-24T07:07:49.477Z,82.92
2023-05-24T07:08:49.378Z,81.09
2023-05-24T07:09:49.505Z,88.84
2023-05-24T07:10:49.346Z,86.49
2023-05-24T07:11:49.528Z,80.88
2023-05-24T07:12:49.317Z,81.29
2023-05-24T07:13:49.456Z,85.47
2023-05-24T07:14:49.294Z,82.41
2023-05-24T07:15:49.420Z,85.53
2023-05-24T07:16:49.338Z,79.66
2023-05-24T07:17:49.403Z,81.18
2023-05-24T07:18:49.261Z,81.39
2023-05-24T07:19:49.364Z,81.39
2023-05-24T07:20:49.316Z,79.14
2023-05-24T07:21:49.278Z,80.47
2023-05-24T07:22:49.205Z,79.86
2023-05-24T07:23:49.256Z,82.21
2023-05-24T07:24:49.202Z,85.98
2023-05-24T07:25:49.311Z,84.55
2023-05-24T07:26:49.202Z,81.59
2023-05-24T07:27:49.278Z,81.59
2023-05-24T07:28:49.160Z,82.10
2023-05-24T07:29:49.273Z,82.00
2023-05-24T07:30:49.335Z,85.77
2023-05-24T07:31:49.306Z,81.29
2023-05-24T07:32:49.255Z,87.92
2023-05-24T07:33:49.247Z,83.73
2023-05-24T07:34:49.091Z,82.31
2023-05-24T07:35:49.136Z,79.75
2023-05-24T07:36:49.069Z,81.18
2023-05-24T07:37:49.199Z,85.06
2023-05-24T07:38:49.053Z,80.68
2023-05-24T07:39:49.163Z,88.84
2023-05-24T07:40:49.028Z,81.59
2023-05-24T07:41:49.102Z,83.18
2023-05-24T07:42:49.000Z,81.96
2023-05-24T07:43:49.075Z,80.94
2023-05-24T07:44:48.996Z,78.60
2023-05-24T07:45:49.172Z,78.39
2023-05-24T07:46:49.112Z,80.64
2023-05-24T07:47:49.035Z,79.82
2023-05-24T07:48:48.956Z,80.23
2023-05-24T07:49:49.026Z,79.72
2023-05-24T07:50:48.962Z,79.11
2023-05-24T07:51:49.017Z,77.98
2023-05-24T07:52:48.895Z,78.50
2023-05-24T07:53:48.933Z,77.75
2023-05-24T07:54:48.898Z,77.85
2023-05-24T07:55:48.961Z,77.64
2023-05-24T07:56:48.880Z,78.26
2023-05-24T07:57:49.030Z,78.46
2023-05-24T07:58:48.842Z,80.50
2023-05-24T07:59:48.888Z,79.89
2023-05-24T08:00:48.829Z,79.99
2023-05-24T08:01:48.947Z,79.58
2023-05-24T08:02:48.899Z,83.96
2023-05-24T08:03:49.019Z,81.52
2023-05-24T08:04:48.781Z,87.94
2023-05-24T08:05:48.814Z,79.99
2023-05-24T08:06:48.796Z,80.91
2023-05-24T08:07:48.870Z,78.56
2023-05-24T08:08:48.731Z,81.76
2023-05-24T08:09:48.837Z,80.33
2023-05-24T08:10:48.733Z,87.06
2023-05-24T08:11:48.856Z,81.35
2023-05-24T08:12:48.686Z,79.00
2023-05-24T08:13:48.809Z,79.93
2023-05-24T08:14:48.693Z,80.23
2023-05-24T08:15:48.786Z,79.11
2023-05-24T08:16:48.702Z,79.21
2023-05-24T08:17:48.777Z,82.17
2023-05-24T08:18:48.636Z,82.68
2023-05-24T08:19:48.796Z,79.21
2023-05-24T08:20:48.657Z,78.50
2023-05-24T08:21:48.717Z,79.41
2023-05-24T08:22:48.731Z,79.52
2023-05-24T08:23:48.699Z,81.04
2023-05-24T08:24:48.580Z,79.14
2023-05-24T08:25:48.651Z,79.35
2023-05-24T08:26:48.536Z,79.04
2023-05-24T08:27:48.697Z,80.88
2023-05-24T08:28:48.517Z,84.14
2023-05-24T08:29:48.599Z,81.59
2023-05-24T08:30:48.507Z,81.59
2023-05-24T08:31:48.641Z,80.57
2023-05-24T08:32:48.530Z,80.47
2023-05-24T08:33:48.597Z,79.00
2023-05-24T08:34:48.477Z,80.13
2023-05-24T08:35:48.514Z,81.15
2023-05-24T08:36:48.434Z,79.52
2023-05-24T08:37:48.510Z,81.82
2023-05-24T08:38:48.420Z,79.79
2023-05-24T08:39:48.532Z,78.46
2023-05-24T08:40:48.409Z,78.56
2023-05-24T08:42:01.007Z,77.75
2023-05-24T08:42:48.417Z,78.97
2023-05-24T08:43:48.463Z,79.48
2023-05-24T08:44:48.346Z,79.24
2023-05-24T08:45:48.476Z,78.49
2023-05-24T08:46:48.378Z,76.21
2023-05-24T08:47:48.501Z,76.28
2023-05-24T08:48:48.391Z,76.01
2023-05-24T08:49:48.454Z,76.35
2023-05-24T08:50:48.297Z,75.37
2023-05-24T08:51:48.311Z,75.88
2023-05-24T08:52:48.281Z,76.39
2023-05-24T08:53:48.329Z,76.12
2023-05-24T08:54:48.250Z,76.73
2023-05-24T08:55:48.321Z,76.22
2023-05-24T08:56:48.249Z,78.77
2023-05-24T08:57:48.230Z,78.63
2023-05-24T08:58:48.213Z,76.90
2023-05-24T08:59:48.276Z,77.40
2023-05-24T09:00:48.204Z,76.39
2023-05-24T09:01:48.415Z,75.16
2023-05-24T09:02:48.193Z,79.85
2023-05-24T09:03:48.312Z,78.12
2023-05-24T09:04:48.140Z,76.42
2023-05-24T09:05:48.186Z,78.05
2023-05-24T09:06:48.140Z,78.46
2023-05-24T09:07:48.201Z,75.85
2023-05-24T09:08:48.089Z,76.35
2023-05-24T09:09:48.166Z,76.56
2023-05-24T09:10:55.008Z,77.27
2023-05-24T09:11:48.106Z,77.58
2023-05-24T09:12:48.138Z,75.34
2023-05-24T09:13:48.055Z,76.80
2023-05-24T09:14:48.135Z,79.14
2023-05-24T09:15:48.064Z,79.75
2023-05-24T09:16:48.128Z,78.84
2023-05-24T09:17:48.083Z,76.22
2023-05-24T09:18:48.072Z,76.32
2023-05-24T09:19:47.996Z,76.43
2023-05-24T09:20:48.263Z,77.04
2023-05-24T09:21:47.999Z,77.55
2023-05-24T09:22:48.036Z,77.69
2023-05-24T09:23:47.936Z,77.59
2023-05-24T09:24:48.080Z,79.83
2023-05-24T09:25:47.931Z,78.50
2023-05-24T09:26:48.031Z,79.52
2023-05-24T09:27:48.927Z,78.91
2023-05-24T09:28:47.932Z,78.50
2023-05-24T09:29:47.898Z,81.98
2023-05-24T09:30:47.955Z,81.32
2023-05-24T09:31:47.963Z,79.59
2023-05-24T09:32:47.986Z,80.34
2023-05-24T09:33:47.837Z,83.78
2023-05-24T09:34:47.865Z,80.14
2023-05-24T09:35:47.821Z,81.26
2023-05-24T09:36:47.900Z,81.87
2023-05-24T09:37:47.800Z,81.05
2023-05-24T09:38:47.874Z,79.83
2023-05-24T09:39:47.766Z,80.04
2023-05-24T09:40:47.793Z,80.69
2023-05-24T09:41:47.787Z,82.49
2023-05-24T09:42:47.833Z,82.28
2023-05-24T09:43:47.743Z,80.34
2023-05-24T09:44:47.895Z,80.28
2023-05-24T09:45:47.710Z,83.75
2023-05-24T09:46:47.865Z,82.63
2023-05-24T09:47:47.731Z,83.04
2023-05-24T09:48:47.762Z,82.93
2023-05-24T09:49:49.279Z,84.22
2023-05-24T09:50:47.798Z,81.20
2023-05-24T09:51:47.831Z,81.77
2023-05-24T09:52:47.674Z,81.67
2023-05-24T09:53:47.630Z,83.04
2023-05-24T09:54:47.682Z,83.51
2023-05-24T09:55:47.606Z,82.59
2023-05-24T09:56:47.730Z,83.40
2023-05-24T09:57:47.587Z,82.55
2023-05-24T09:58:47.621Z,82.24
2023-05-24T09:59:47.563Z,82.61
2023-05-24T10:00:48.043Z,80.88
2023-05-24T10:01:47.644Z,84.72
2023-05-24T10:02:53.541Z,83.39
2023-05-24T10:03:47.626Z,82.54
2023-05-24T10:04:47.765Z,78.66
2023-05-24T10:05:47.500Z,78.97
2023-05-24T10:06:47.628Z,79.58
2023-05-24T10:07:47.477Z,78.05
2023-05-24T10:08:47.573Z,77.98
2023-05-24T10:09:47.458Z,78.60
2023-05-24T10:10:47.495Z,78.50
2023-05-24T10:11:47.457Z,77.68
2023-05-24T10:12:47.548Z,77.37
2023-05-24T10:13:47.424Z,79.62
2023-05-24T10:14:47.534Z,78.19
2023-05-24T10:15:47.406Z,78.30
2023-05-24T10:16:47.468Z,81.04
2023-05-24T10:17:47.417Z,80.40
2023-05-24T10:18:47.419Z,84.06
2023-05-24T10:19:47.344Z,82.33
2023-05-24T10:20:47.708Z,79.17
2023-05-24T10:21:47.400Z,78.56
2023-05-24T10:22:47.397Z,78.97
2023-05-24T10:23:47.335Z,76.42
2023-05-24T10:24:47.385Z,78.26
2023-05-24T10:25:47.289Z,79.99
2023-05-24T10:26:47.520Z,78.02
2023-05-24T10:27:47.253Z,79.75
2023-05-24T10:28:47.272Z,78.73
2023-05-24T10:29:47.274Z,77.51
2023-05-24T10:30:47.572Z,77.10
2023-05-24T10:31:47.319Z,75.16
2023-05-24T10:32:47.419Z,76.59
2023-05-24T10:33:47.227Z,76.90
2023-05-24T10:34:47.240Z,76.39
2023-05-24T10:35:47.191Z,76.90
2023-05-24T10:36:47.282Z,77.91
2023-05-24T10:37:47.167Z,77.51
2023-05-24T10:38:47.276Z,80.19
2023-05-24T10:39:47.145Z,76.83
2023-05-24T10:40:47.177Z,76.32
2023-05-24T10:41:47.166Z,74.73
2023-05-24T10:42:47.234Z,80.02
2023-05-24T10:44:00.910Z,77.98
2023-05-24T10:44:47.094Z,78.30
2023-05-24T10:45:47.197Z,77.78
2023-05-24T10:46:47.185Z,75.88
2023-05-24T10:47:47.127Z,80.16
2023-05-24T10:48:47.041Z,79.32
2023-05-24T10:49:47.105Z,78.19
2023-05-24T10:50:47.010Z,78.60
2023-05-24T10:51:47.122Z,80.23
2023-05-24T10:52:47.006Z,80.29
2023-05-24T10:53:47.022Z,79.07
2023-05-24T10:54:55.988Z,79.48
2023-05-24T10:55:46.972Z,75.67
2023-05-24T10:56:47.051Z,77.71
2023-05-24T10:57:46.988Z,74.55
2023-05-24T10:58:47.000Z,76.49
2023-05-24T10:59:46.942Z,75.47
2023-05-24T11:00:46.983Z,78.73
2023-05-24T11:01:46.949Z,77.20
2023-05-24T11:02:47.050Z,78.63
2023-05-24T11:03:46.886Z,76.39
2023-05-24T11:04:47.101Z,75.57
2023-05-24T11:05:47.132Z,74.08
2023-05-24T11:06:46.975Z,78.87
2023-05-24T11:07:46.856Z,82.74
2023-05-24T11:08:46.920Z,79.34
2023-05-24T11:09:47.145Z,77.30
2023-05-24T11:10:46.818Z,76.83
2023-05-24T11:11:46.796Z,75.60
2023-05-24T11:12:46.913Z,76.42
2023-05-24T11:13:46.786Z,76.56
2023-05-24T11:14:46.858Z,77.89
2023-05-24T11:15:46.793Z,77.48
2023-05-24T11:16:46.910Z,78.80
2023-05-24T11:17:46.797Z,75.64
2023-05-24T11:18:46.789Z,79.72
2023-05-24T11:19:46.724Z,80.13
2023-05-24T11:20:47.106Z,79.62
2023-05-24T11:21:46.728Z,76.87
2023-05-24T11:22:46.742Z,76.90
2023-05-24T11:23:46.675Z,80.68
2023-05-24T11:24:46.732Z,76.19
2023-05-24T11:25:46.638Z,78.33
2023-05-24T11:26:46.738Z,77.00
2023-05-24T11:27:46.626Z,80.27
2023-05-24T11:28:47.731Z,78.53
2023-05-24T11:29:46.616Z,78.33
2023-05-24T11:30:46.665Z,79.35
2023-05-24T11:31:46.818Z,80.16
2023-05-24T11:32:46.730Z,78.53
2023-05-24T11:33:46.579Z,80.07
2023-05-24T11:34:46.640Z,79.04
2023-05-24T11:35:46.538Z,77.92
2023-05-24T11:36:46.613Z,79.55
2023-05-24T11:37:47.049Z,77.34
2023-05-24T11:38:46.671Z,80.07
2023-05-24T11:39:46.497Z,78.98
2023-05-24T11:40:46.544Z,77.86
2023-05-24T11:41:46.472Z,76.43
2023-05-24T11:42:46.592Z,77.86
2023-05-24T11:43:46.471Z,78.88
2023-05-24T11:44:46.550Z,79.80
2023-05-24T11:45:46.509Z,78.57
2023-05-24T11:46:46.453Z,79.69
2023-05-24T11:47:46.483Z,78.57
2023-05-24T11:48:46.487Z,78.06
2023-05-24T11:49:46.431Z,77.96
2023-05-24T11:50:49.728Z,78.88
2023-05-24T11:51:46.392Z,79.02
2023-05-24T11:52:46.421Z,79.43
2023-05-24T11:53:46.351Z,77.48
2023-05-24T11:54:46.465Z,79.93
2023-05-24T11:55:46.326Z,80.85
2023-05-24T11:56:46.415Z,81.26
2023-05-24T11:57:46.363Z,80.10
2023-05-24T11:58:46.350Z,81.23
2023-05-24T11:59:46.340Z,80.41
2023-05-24T12:00:46.356Z,80.41
2023-05-24T12:01:46.290Z,79.18
2023-05-24T12:02:46.343Z,80.82
2023-05-24T12:03:46.517Z,78.37
2023-05-24T12:04:46.902Z,79.49
2023-05-24T12:05:46.218Z,77.75
2023-05-24T12:06:46.396Z,77.14
2023-05-24T12:07:46.203Z,79.18
2023-05-24T12:08:46.209Z,76.63
2023-05-24T12:09:46.208Z,78.16
2023-05-24T12:10:46.310Z,76.93
2023-05-24T12:11:46.169Z,78.57
2023-05-24T12:12:46.441Z,78.57
2023-05-24T12:13:46.148Z,79.66
2023-05-24T12:14:48.339Z,79.45
2023-05-24T12:15:46.185Z,77.82
2023-05-24T12:16:46.214Z,77.62
2023-05-24T12:17:46.166Z,83.63
2023-05-24T12:18:59.295Z,78.12
2023-05-24T12:19:46.075Z,80.23
2023-05-24T12:20:46.649Z,78.70
2023-05-24T12:21:46.058Z,79.62
2023-05-24T12:23:07.236Z,81.96
2023-05-24T12:23:46.051Z,79.17
2023-05-24T12:24:46.169Z,80.09
2023-05-24T12:25:46.053Z,76.53
2023-05-24T12:26:46.193Z,75.81
2023-05-24T12:27:46.001Z,77.85
2023-05-24T12:28:46.072Z,74.49
2023-05-24T12:29:45.983Z,74.62
2023-05-24T12:30:46.133Z,75.23
2023-05-24T12:31:46.124Z,75.16
2023-05-24T12:32:46.212Z,77.89
2023-05-24T12:33:45.937Z,80.54
2023-05-24T12:34:46.048Z,75.78
2023-05-24T12:35:45.913Z,77.37
2023-05-24T12:36:46.079Z,76.46
2023-05-24T12:37:45.922Z,76.97
2023-05-24T12:38:47.066Z,75.44
2023-05-24T12:39:45.868Z,74.62
2023-05-24T12:40:48.509Z,75.54
2023-05-24T12:41:45.842Z,77.27
2023-05-24T12:42:46.109Z,76.05
2023-05-24T12:43:45.830Z,76.22
2023-05-24T12:44:45.984Z,77.95
2023-05-24T12:45:45.804Z,74.69
2023-05-24T12:46:45.937Z,77.03
2023-05-24T12:47:45.885Z,75.60
2023-05-24T12:48:45.916Z,75.30
2023-05-24T12:49:45.759Z,74.90
2023-05-24T12:50:45.934Z,75.51
2023-05-24T12:51:47.793Z,75.81
2023-05-24T12:52:45.863Z,77.95
2023-05-24T12:53:45.763Z,74.79
2023-05-24T12:54:45.866Z,74.18